sensor_id;sensor_type;location;lat;lon;timestamp;temperature;humidity
32534;DHT22;18973;48.580;8.912;2023-04-15T00:02:17;5.70;99.90
32534;DHT22;18973;48.580;8.912;2023-04-15T00:04:46;5.70;99.90
32534;DHT22;18973;48.580;8.912;2023-04-15T00:07:12;5.70;99.90
32534;DHT22;18973;48.580;8.912;2023-04-15T00:09:40;5.80;99.90
32534;DHT22;18973;48.580;8.912;2023-04-15T00:12:06;6.10;99.90
32534;DHT22;18973;48.580;8.912;2023-04-15T00:14:34;6.20;99.90
32534;DHT22;18973;48.580;8.912;2023-04-15T00:17:01;6.40;99.90
32534;DHT22;18973;48.580;8.912;2023-04-15T00:19:28;6.40;99.90
32534;DHT22;18973;48.580;8.912;2023-04-15T00:21:54;6.10;99.90
32534;DHT22;18973;48.580;8.912;2023-04-15T00:24:19;5.90;99.90
32534;DHT22;18973;48.580;8.912;2023-04-15T00:26:46;5.80;99.90
32534;DHT22;18973;48.580;8.912;2023-04-15T00:29:12;5.70;99.90
32534;DHT22;18973;48.580;8.912;2023-04-15T00:31:37;5.90;99.90
32534;DHT22;18973;48.580;8.912;2023-04-15T00:34:03;6.10;99.90
32534;DHT22;18973;48.580;8.912;2023-04-15T00:36:29;6.20;99.90
32534;DHT22;18973;48.580;8.912;2023-04-15T00:38:56;6.10;99.90
32534;DHT22;18973;48.580;8.912;2023-04-15T00:41:22;6.10;99.90
32534;DHT22;18973;48.580;8.912;2023-04-15T00:43:47;6.00;99.90
32534;DHT22;18973;48.580;8.912;2023-04-15T00:46:15;6.00;99.90
32534;DHT22;18973;48.580;8.912;2023-04-15T00:48:42;6.10;99.90
32534;DHT22;18973;48.580;8.912;2023-04-15T00:51:08;6.10;99.90
32534;DHT22;18973;48.580;8.912;2023-04-15T00:53:34;6.10;99.90
32534;DHT22;18973;48.580;8.912;2023-04-15T00:56:00;6.10;99.90
32534;DHT22;18973;48.580;8.912;2023-04-15T00:58:25;5.90;99.90
32534;DHT22;18973;48.580;8.912;2023-04-15T01:00:53;5.80;99.90
32534;DHT22;18973;48.580;8.912;2023-04-15T01:03:19;5.80;99.90
32534;DHT22;18973;48.580;8.912;2023-04-15T01:05:46;5.80;99.90
32534;DHT22;18973;48.580;8.912;2023-04-15T01:08:11;5.70;99.90
32534;DHT22;18973;48.580;8.912;2023-04-15T01:10:38;5.30;99.90
32534;DHT22;18973;48.580;8.912;2023-04-15T01:13:04;5.00;99.90
32534;DHT22;18973;48.580;8.912;2023-04-15T01:15:30;4.90;99.90
32534;DHT22;18973;48.580;8.912;2023-04-15T01:17:58;4.90;99.90
32534;DHT22;18973;48.580;8.912;2023-04-15T01:20:23;4.80;99.90
32534;DHT22;18973;48.580;8.912;2023-04-15T01:22:49;4.80;99.90
32534;DHT22;18973;48.580;8.912;2023-04-15T01:25:28;4.70;99.90
32534;DHT22;18973;48.580;8.912;2023-04-15T01:27:55;5.00;99.90
32534;DHT22;18973;48.580;8.912;2023-04-15T01:30:21;5.00;99.90
32534;DHT22;18973;48.580;8.912;2023-04-15T01:32:47;4.80;99.90
32534;DHT22;18973;48.580;8.912;2023-04-15T01:35:12;4.60;99.90
32534;DHT22;18973;48.580;8.912;2023-04-15T01:37:38;4.50;99.90
32534;DHT22;18973;48.580;8.912;2023-04-15T01:40:04;4.50;99.90
32534;DHT22;18973;48.580;8.912;2023-04-15T01:42:30;4.70;99.90
32534;DHT22;18973;48.580;8.912;2023-04-15T01:44:57;4.70;99.90
32534;DHT22;18973;48.580;8.912;2023-04-15T01:47:22;4.90;99.90
32534;DHT22;18973;48.580;8.912;2023-04-15T01:49:48;5.00;99.90
32534;DHT22;18973;48.580;8.912;2023-04-15T01:52:13;5.10;99.90
32534;DHT22;18973;48.580;8.912;2023-04-15T01:54:40;5.10;99.90
32534;DHT22;18973;48.580;8.912;2023-04-15T01:57:06;4.90;99.90
32534;DHT22;18973;48.580;8.912;2023-04-15T01:59:31;5.00;99.90
32534;DHT22;18973;48.580;8.912;2023-04-15T02:01:57;4.90;99.90
32534;DHT22;18973;48.580;8.912;2023-04-15T02:04:23;4.80;99.90
32534;DHT22;18973;48.580;8.912;2023-04-15T02:06:49;4.90;99.90
32534;DHT22;18973;48.580;8.912;2023-04-15T02:09:14;4.80;99.90
32534;DHT22;18973;48.580;8.912;2023-04-15T02:11:40;5.00;99.90
32534;DHT22;18973;48.580;8.912;2023-04-15T02:14:06;5.00;99.90
32534;DHT22;18973;48.580;8.912;2023-04-15T02:16:32;5.10;99.90
32534;DHT22;18973;48.580;8.912;2023-04-15T02:18:59;5.00;99.90
32534;DHT22;18973;48.580;8.912;2023-04-15T02:21:25;5.00;99.90
32534;DHT22;18973;48.580;8.912;2023-04-15T02:23:51;5.00;99.90
32534;DHT22;18973;48.580;8.912;2023-04-15T02:26:18;4.90;99.90
32534;DHT22;18973;48.580;8.912;2023-04-15T02:28:45;4.90;99.90
32534;DHT22;18973;48.580;8.912;2023-04-15T02:31:11;4.80;99.90
32534;DHT22;18973;48.580;8.912;2023-04-15T02:33:37;4.80;99.90
32534;DHT22;18973;48.580;8.912;2023-04-15T02:36:03;4.80;99.90
32534;DHT22;18973;48.580;8.912;2023-04-15T02:38:29;4.20;99.90
32534;DHT22;18973;48.580;8.912;2023-04-15T02:40:56;4.00;99.90
32534;DHT22;18973;48.580;8.912;2023-04-15T02:43:22;4.30;99.90
32534;DHT22;18973;48.580;8.912;2023-04-15T02:45:48;4.40;99.90
32534;DHT22;18973;48.580;8.912;2023-04-15T02:48:13;4.50;99.90
32534;DHT22;18973;48.580;8.912;2023-04-15T02:50:41;4.20;99.90
32534;DHT22;18973;48.580;8.912;2023-04-15T02:53:07;4.30;99.90
32534;DHT22;18973;48.580;8.912;2023-04-15T02:55:32;4.30;99.90
32534;DHT22;18973;48.580;8.912;2023-04-15T02:57:58;4.10;99.90
32534;DHT22;18973;48.580;8.912;2023-04-15T03:00:25;4.20;99.90
32534;DHT22;18973;48.580;8.912;2023-04-15T03:03:05;4.40;99.90
32534;DHT22;18973;48.580;8.912;2023-04-15T03:05:31;4.40;99.90
32534;DHT22;18973;48.580;8.912;2023-04-15T03:07:57;4.50;99.90
32534;DHT22;18973;48.580;8.912;2023-04-15T03:10:22;4.60;99.90
32534;DHT22;18973;48.580;8.912;2023-04-15T03:12:48;4.60;99.90
32534;DHT22;18973;48.580;8.912;2023-04-15T03:15:14;4.50;99.90
32534;DHT22;18973;48.580;8.912;2023-04-15T03:17:40;4.50;99.90
32534;DHT22;18973;48.580;8.912;2023-04-15T03:20:06;4.40;99.90
32534;DHT22;18973;48.580;8.912;2023-04-15T03:22:32;4.50;99.90
32534;DHT22;18973;48.580;8.912;2023-04-15T03:24:57;4.60;99.90
32534;DHT22;18973;48.580;8.912;2023-04-15T03:27:24;4.50;99.90
32534;DHT22;18973;48.580;8.912;2023-04-15T03:29:50;4.30;99.90
32534;DHT22;18973;48.580;8.912;2023-04-15T03:32:16;4.20;99.90
32534;DHT22;18973;48.580;8.912;2023-04-15T03:34:42;4.20;99.90
32534;DHT22;18973;48.580;8.912;2023-04-15T03:37:08;4.20;99.90
32534;DHT22;18973;48.580;8.912;2023-04-15T03:39:34;3.70;99.90
32534;DHT22;18973;48.580;8.912;2023-04-15T03:42:00;3.40;99.90
32534;DHT22;18973;48.580;8.912;2023-04-15T03:44:26;3.60;99.90
32534;DHT22;18973;48.580;8.912;2023-04-15T03:46:52;3.70;99.90
32534;DHT22;18973;48.580;8.912;2023-04-15T03:49:18;3.80;99.90
32534;DHT22;18973;48.580;8.912;2023-04-15T03:51:44;3.50;99.90
32534;DHT22;18973;48.580;8.912;2023-04-15T03:54:10;3.30;99.90
32534;DHT22;18973;48.580;8.912;2023-04-15T03:56:37;3.40;99.90
32534;DHT22;18973;48.580;8.912;2023-04-15T03:59:03;3.60;99.90
32534;DHT22;18973;48.580;8.912;2023-04-15T04:01:29;3.60;99.90
32534;DHT22;18973;48.580;8.912;2023-04-15T04:03:54;3.80;99.90
32534;DHT22;18973;48.580;8.912;2023-04-15T04:06:20;3.90;99.90
32534;DHT22;18973;48.580;8.912;2023-04-15T04:08:46;3.80;99.90
32534;DHT22;18973;48.580;8.912;2023-04-15T04:11:12;3.80;99.90
32534;DHT22;18973;48.580;8.912;2023-04-15T04:13:38;3.70;99.90
32534;DHT22;18973;48.580;8.912;2023-04-15T04:16:03;3.50;99.90
32534;DHT22;18973;48.580;8.912;2023-04-15T04:18:31;3.70;99.90
32534;DHT22;18973;48.580;8.912;2023-04-15T04:21:00;3.70;99.90
32534;DHT22;18973;48.580;8.912;2023-04-15T04:23:25;3.90;99.90
32534;DHT22;18973;48.580;8.912;2023-04-15T04:25:51;3.90;99.90
32534;DHT22;18973;48.580;8.912;2023-04-15T04:28:17;3.70;99.90
32534;DHT22;18973;48.580;8.912;2023-04-15T04:30:43;3.70;99.90
32534;DHT22;18973;48.580;8.912;2023-04-15T04:33:09;3.70;99.90
32534;DHT22;18973;48.580;8.912;2023-04-15T04:35:35;3.70;99.90
32534;DHT22;18973;48.580;8.912;2023-04-15T04:38:02;3.50;99.90
32534;DHT22;18973;48.580;8.912;2023-04-15T04:40:28;3.50;99.90
32534;DHT22;18973;48.580;8.912;2023-04-15T04:42:54;3.40;99.90
32534;DHT22;18973;48.580;8.912;2023-04-15T04:45:20;3.40;99.90
32534;DHT22;18973;48.580;8.912;2023-04-15T04:47:46;3.30;99.90
32534;DHT22;18973;48.580;8.912;2023-04-15T04:50:12;3.40;99.90
32534;DHT22;18973;48.580;8.912;2023-04-15T04:52:38;3.50;99.90
32534;DHT22;18973;48.580;8.912;2023-04-15T04:55:04;3.20;99.90
32534;DHT22;18973;48.580;8.912;2023-04-15T04:57:30;3.00;99.90
32534;DHT22;18973;48.580;8.912;2023-04-15T04:59:55;3.00;99.90
32534;DHT22;18973;48.580;8.912;2023-04-15T05:02:22;3.20;99.90
32534;DHT22;18973;48.580;8.912;2023-04-15T05:04:47;3.40;99.90
32534;DHT22;18973;48.580;8.912;2023-04-15T05:07:17;3.40;99.90
32534;DHT22;18973;48.580;8.912;2023-04-15T05:09:45;3.40;99.90
32534;DHT22;18973;48.580;8.912;2023-04-15T05:12:11;3.50;99.90
32534;DHT22;18973;48.580;8.912;2023-04-15T05:14:42;3.50;99.90
32534;DHT22;18973;48.580;8.912;2023-04-15T05:17:08;3.50;99.90
32534;DHT22;18973;48.580;8.912;2023-04-15T05:19:34;3.40;99.90
32534;DHT22;18973;48.580;8.912;2023-04-15T05:22:00;3.60;99.90
32534;DHT22;18973;48.580;8.912;2023-04-15T05:24:26;3.70;99.90
32534;DHT22;18973;48.580;8.912;2023-04-15T05:26:51;3.70;99.90
32534;DHT22;18973;48.580;8.912;2023-04-15T05:29:17;3.80;99.90
32534;DHT22;18973;48.580;8.912;2023-04-15T05:31:43;3.80;99.90
32534;DHT22;18973;48.580;8.912;2023-04-15T05:34:08;3.90;99.90
32534;DHT22;18973;48.580;8.912;2023-04-15T05:36:36;3.90;99.90
32534;DHT22;18973;48.580;8.912;2023-04-15T05:39:01;3.90;99.90
32534;DHT22;18973;48.580;8.912;2023-04-15T05:41:27;3.90;99.90
32534;DHT22;18973;48.580;8.912;2023-04-15T05:43:53;3.90;99.90
32534;DHT22;18973;48.580;8.912;2023-04-15T05:46:18;3.90;99.90
32534;DHT22;18973;48.580;8.912;2023-04-15T05:48:47;3.70;99.90
32534;DHT22;18973;48.580;8.912;2023-04-15T05:51:12;3.70;99.90
32534;DHT22;18973;48.580;8.912;2023-04-15T05:53:38;3.70;99.90
32534;DHT22;18973;48.580;8.912;2023-04-15T05:56:06;3.70;99.90
32534;DHT22;18973;48.580;8.912;2023-04-15T05:58:32;3.70;99.90
32534;DHT22;18973;48.580;8.912;2023-04-15T06:00:57;3.60;99.90
32534;DHT22;18973;48.580;8.912;2023-04-15T06:03:23;3.50;99.90
32534;DHT22;18973;48.580;8.912;2023-04-15T06:05:49;3.70;99.90
32534;DHT22;18973;48.580;8.912;2023-04-15T06:08:15;3.80;99.90
32534;DHT22;18973;48.580;8.912;2023-04-15T06:10:41;3.90;99.90
32534;DHT22;18973;48.580;8.912;2023-04-15T06:13:07;3.90;99.90
32534;DHT22;18973;48.580;8.912;2023-04-15T06:15:33;3.90;99.90
32534;DHT22;18973;48.580;8.912;2023-04-15T06:17:58;3.90;99.90
32534;DHT22;18973;48.580;8.912;2023-04-15T06:20:27;3.90;99.90
32534;DHT22;18973;48.580;8.912;2023-04-15T06:22:53;4.00;99.90
32534;DHT22;18973;48.580;8.912;2023-04-15T06:25:18;4.00;99.90
32534;DHT22;18973;48.580;8.912;2023-04-15T06:27:44;4.10;99.90
32534;DHT22;18973;48.580;8.912;2023-04-15T06:30:10;4.10;99.90
32534;DHT22;18973;48.580;8.912;2023-04-15T06:32:36;4.20;99.90
32534;DHT22;18973;48.580;8.912;2023-04-15T06:35:02;4.20;99.90
32534;DHT22;18973;48.580;8.912;2023-04-15T06:37:28;4.10;99.90
32534;DHT22;18973;48.580;8.912;2023-04-15T06:39:54;4.30;99.90
32534;DHT22;18973;48.580;8.912;2023-04-15T06:42:20;4.30;99.90
32534;DHT22;18973;48.580;8.912;2023-04-15T06:44:46;4.30;99.90
32534;DHT22;18973;48.580;8.912;2023-04-15T06:47:11;4.30;99.90
32534;DHT22;18973;48.580;8.912;2023-04-15T06:49:39;4.30;99.90
32534;DHT22;18973;48.580;8.912;2023-04-15T06:52:05;4.40;99.90
32534;DHT22;18973;48.580;8.912;2023-04-15T06:54:31;4.40;99.90
32534;DHT22;18973;48.580;8.912;2023-04-15T06:56:56;4.40;99.90
32534;DHT22;18973;48.580;8.912;2023-04-15T06:59:22;4.50;99.90
32534;DHT22;18973;48.580;8.912;2023-04-15T07:01:48;4.70;99.90
32534;DHT22;18973;48.580;8.912;2023-04-15T07:04:14;5.00;99.90
32534;DHT22;18973;48.580;8.912;2023-04-15T07:06:39;5.20;99.90
32534;DHT22;18973;48.580;8.912;2023-04-15T07:09:06;5.40;99.90
32534;DHT22;18973;48.580;8.912;2023-04-15T07:11:31;5.60;99.90
32534;DHT22;18973;48.580;8.912;2023-04-15T07:13:57;5.90;99.90
32534;DHT22;18973;48.580;8.912;2023-04-15T07:16:23;6.00;99.90
32534;DHT22;18973;48.580;8.912;2023-04-15T07:18:49;6.20;99.90
32534;DHT22;18973;48.580;8.912;2023-04-15T07:21:14;6.30;99.90
32534;DHT22;18973;48.580;8.912;2023-04-15T07:23:41;6.50;99.90
32534;DHT22;18973;48.580;8.912;2023-04-15T07:26:07;6.70;99.90
32534;DHT22;18973;48.580;8.912;2023-04-15T07:28:33;6.80;99.90
32534;DHT22;18973;48.580;8.912;2023-04-15T07:30:59;7.00;99.90
32534;DHT22;18973;48.580;8.912;2023-04-15T07:33:25;7.10;99.90
32534;DHT22;18973;48.580;8.912;2023-04-15T07:35:50;7.40;99.90
32534;DHT22;18973;48.580;8.912;2023-04-15T07:38:16;7.60;99.90
32534;DHT22;18973;48.580;8.912;2023-04-15T07:40:42;7.70;99.90
32534;DHT22;18973;48.580;8.912;2023-04-15T07:43:08;7.70;99.90
32534;DHT22;18973;48.580;8.912;2023-04-15T07:45:34;7.70;99.90
32534;DHT22;18973;48.580;8.912;2023-04-15T07:48:01;7.70;99.90
32534;DHT22;18973;48.580;8.912;2023-04-15T07:50:27;7.90;99.90
32534;DHT22;18973;48.580;8.912;2023-04-15T07:52:52;7.90;99.90
32534;DHT22;18973;48.580;8.912;2023-04-15T07:55:18;8.00;99.90
32534;DHT22;18973;48.580;8.912;2023-04-15T07:57:49;8.00;99.90
32534;DHT22;18973;48.580;8.912;2023-04-15T08:00:15;8.10;99.90
32534;DHT22;18973;48.580;8.912;2023-04-15T08:02:42;8.30;99.90
32534;DHT22;18973;48.580;8.912;2023-04-15T08:05:08;8.40;99.90
32534;DHT22;18973;48.580;8.912;2023-04-15T08:07:36;8.40;99.90
32534;DHT22;18973;48.580;8.912;2023-04-15T08:10:02;8.40;99.90
32534;DHT22;18973;48.580;8.912;2023-04-15T08:12:28;8.50;99.90
32534;DHT22;18973;48.580;8.912;2023-04-15T08:14:54;8.60;99.90
32534;DHT22;18973;48.580;8.912;2023-04-15T08:17:21;8.60;99.90
32534;DHT22;18973;48.580;8.912;2023-04-15T08:19:46;8.70;99.90
32534;DHT22;18973;48.580;8.912;2023-04-15T08:22:13;8.90;99.90
32534;DHT22;18973;48.580;8.912;2023-04-15T08:24:38;9.00;99.90
32534;DHT22;18973;48.580;8.912;2023-04-15T08:27:04;9.00;99.90
32534;DHT22;18973;48.580;8.912;2023-04-15T08:29:33;9.10;99.90
32534;DHT22;18973;48.580;8.912;2023-04-15T08:32:00;9.20;99.90
32534;DHT22;18973;48.580;8.912;2023-04-15T08:34:26;9.30;99.90
32534;DHT22;18973;48.580;8.912;2023-04-15T08:36:52;9.40;99.90
32534;DHT22;18973;48.580;8.912;2023-04-15T08:39:18;9.40;99.90
32534;DHT22;18973;48.580;8.912;2023-04-15T08:41:51;9.40;99.90
32534;DHT22;18973;48.580;8.912;2023-04-15T08:44:22;9.60;99.90
32534;DHT22;18973;48.580;8.912;2023-04-15T08:46:49;9.50;99.90
32534;DHT22;18973;48.580;8.912;2023-04-15T08:49:16;9.60;99.90
32534;DHT22;18973;48.580;8.912;2023-04-15T08:51:44;9.70;99.90
32534;DHT22;18973;48.580;8.912;2023-04-15T08:54:10;9.70;99.90
32534;DHT22;18973;48.580;8.912;2023-04-15T08:56:38;9.80;99.90
32534;DHT22;18973;48.580;8.912;2023-04-15T08:59:04;9.90;99.90
32534;DHT22;18973;48.580;8.912;2023-04-15T09:01:31;10.00;99.90
32534;DHT22;18973;48.580;8.912;2023-04-15T09:03:58;10.00;99.90
32534;DHT22;18973;48.580;8.912;2023-04-15T09:06:24;10.10;99.90
32534;DHT22;18973;48.580;8.912;2023-04-15T09:08:51;10.20;99.90
32534;DHT22;18973;48.580;8.912;2023-04-15T09:11:17;10.20;99.90
32534;DHT22;18973;48.580;8.912;2023-04-15T09:13:44;10.30;99.90
32534;DHT22;18973;48.580;8.912;2023-04-15T09:16:13;10.40;99.90
32534;DHT22;18973;48.580;8.912;2023-04-15T09:18:40;10.30;99.90
32534;DHT22;18973;48.580;8.912;2023-04-15T09:21:08;10.40;99.90
32534;DHT22;18973;48.580;8.912;2023-04-15T09:23:37;10.60;99.90
32534;DHT22;18973;48.580;8.912;2023-04-15T09:26:03;10.60;99.90
32534;DHT22;18973;48.580;8.912;2023-04-15T09:28:29;10.60;99.90
32534;DHT22;18973;48.580;8.912;2023-04-15T09:31:00;10.70;99.90
32534;DHT22;18973;48.580;8.912;2023-04-15T09:33:27;10.70;99.90
32534;DHT22;18973;48.580;8.912;2023-04-15T09:36:04;10.80;99.90
32534;DHT22;18973;48.580;8.912;2023-04-15T09:38:30;10.90;99.90
32534;DHT22;18973;48.580;8.912;2023-04-15T09:40:57;11.00;99.90
32534;DHT22;18973;48.580;8.912;2023-04-15T09:43:39;11.30;99.90
32534;DHT22;18973;48.580;8.912;2023-04-15T09:46:05;11.60;99.90
32534;DHT22;18973;48.580;8.912;2023-04-15T09:48:31;11.70;98.50
32534;DHT22;18973;48.580;8.912;2023-04-15T09:50:57;11.80;98.00
32534;DHT22;18973;48.580;8.912;2023-04-15T09:53:24;11.90;98.50
32534;DHT22;18973;48.580;8.912;2023-04-15T09:55:58;12.10;98.30
32534;DHT22;18973;48.580;8.912;2023-04-15T09:58:31;12.40;97.80
32534;DHT22;18973;48.580;8.912;2023-04-15T10:00:58;12.40;97.60
32534;DHT22;18973;48.580;8.912;2023-04-15T10:03:26;12.60;97.90
32534;DHT22;18973;48.580;8.912;2023-04-15T10:05:54;12.50;97.90
32534;DHT22;18973;48.580;8.912;2023-04-15T10:08:22;12.60;97.50
32534;DHT22;18973;48.580;8.912;2023-04-15T10:10:49;12.60;99.30
32534;DHT22;18973;48.580;8.912;2023-04-15T10:13:22;12.80;99.30
32534;DHT22;18973;48.580;8.912;2023-04-15T10:18:27;13.00;95.90
32534;DHT22;18973;48.580;8.912;2023-04-15T10:20:54;14.00;99.90
32534;DHT22;18973;48.580;8.912;2023-04-15T10:23:21;14.60;99.90
32534;DHT22;18973;48.580;8.912;2023-04-15T10:25:49;15.20;99.90
32534;DHT22;18973;48.580;8.912;2023-04-15T10:28:16;15.70;96.80
32534;DHT22;18973;48.580;8.912;2023-04-15T10:30:42;16.10;94.60
32534;DHT22;18973;48.580;8.912;2023-04-15T10:33:09;15.80;89.30
32534;DHT22;18973;48.580;8.912;2023-04-15T10:35:36;15.60;80.60
32534;DHT22;18973;48.580;8.912;2023-04-15T10:38:02;15.30;79.00
32534;DHT22;18973;48.580;8.912;2023-04-15T10:40:49;15.00;78.80
32534;DHT22;18973;48.580;8.912;2023-04-15T10:43:24;14.60;76.90
32534;DHT22;18973;48.580;8.912;2023-04-15T10:45:53;14.50;79.80
32534;DHT22;18973;48.580;8.912;2023-04-15T10:48:18;14.40;75.20
32534;DHT22;18973;48.580;8.912;2023-04-15T10:50:56;14.50;77.90
32534;DHT22;18973;48.580;8.912;2023-04-15T10:53:28;14.40;71.40
32534;DHT22;18973;48.580;8.912;2023-04-15T10:55:56;14.40;71.90
32534;DHT22;18973;48.580;8.912;2023-04-15T10:58:24;14.30;68.10
32534;DHT22;18973;48.580;8.912;2023-04-15T11:00:51;13.90;70.80
32534;DHT22;18973;48.580;8.912;2023-04-15T11:03:36;14.10;72.20
32534;DHT22;18973;48.580;8.912;2023-04-15T11:06:03;14.20;71.40
32534;DHT22;18973;48.580;8.912;2023-04-15T11:11:18;13.90;68.20
32534;DHT22;18973;48.580;8.912;2023-04-15T11:13:48;14.00;64.80
32534;DHT22;18973;48.580;8.912;2023-04-15T11:16:14;14.10;66.80
32534;DHT22;18973;48.580;8.912;2023-04-15T11:18:40;14.20;62.40
32534;DHT22;18973;48.580;8.912;2023-04-15T11:21:07;14.30;65.90
32534;DHT22;18973;48.580;8.912;2023-04-15T11:23:41;14.20;60.70
32534;DHT22;18973;48.580;8.912;2023-04-15T11:26:13;14.30;64.80
32534;DHT22;18973;48.580;8.912;2023-04-15T11:28:41;14.40;65.70
32534;DHT22;18973;48.580;8.912;2023-04-15T11:31:12;14.50;64.50
32534;DHT22;18973;48.580;8.912;2023-04-15T11:34:05;14.50;63.60
32534;DHT22;18973;48.580;8.912;2023-04-15T11:36:30;14.50;65.50
32534;DHT22;18973;48.580;8.912;2023-04-15T11:38:58;14.50;64.90
32534;DHT22;18973;48.580;8.912;2023-04-15T11:41:24;14.60;65.90
32534;DHT22;18973;48.580;8.912;2023-04-15T11:43:51;14.50;63.40
32534;DHT22;18973;48.580;8.912;2023-04-15T11:46:17;14.50;63.40
32534;DHT22;18973;48.580;8.912;2023-04-15T11:48:45;14.30;62.40
32534;DHT22;18973;48.580;8.912;2023-04-15T11:51:12;14.30;65.90
32534;DHT22;18973;48.580;8.912;2023-04-15T11:53:49;14.30;64.50
32534;DHT22;18973;48.580;8.912;2023-04-15T11:56:20;14.30;62.40
32534;DHT22;18973;48.580;8.912;2023-04-15T11:58:47;14.40;62.70
32534;DHT22;18973;48.580;8.912;2023-04-15T12:01:14;14.40;61.40
32534;DHT22;18973;48.580;8.912;2023-04-15T12:03:44;14.50;62.70
32534;DHT22;18973;48.580;8.912;2023-04-15T12:06:19;14.60;63.10
32534;DHT22;18973;48.580;8.912;2023-04-15T12:11:18;14.90;64.50
32534;DHT22;18973;48.580;8.912;2023-04-15T12:13:49;14.90;61.60
32534;DHT22;18973;48.580;8.912;2023-04-15T12:16:18;14.90;63.40
32534;DHT22;18973;48.580;8.912;2023-04-15T12:18:54;14.90;64.00
32534;DHT22;18973;48.580;8.912;2023-04-15T12:21:21;14.60;65.40
32534;DHT22;18973;48.580;8.912;2023-04-15T12:23:48;14.90;68.60
32534;DHT22;18973;48.580;8.912;2023-04-15T12:26:28;15.30;68.50
32534;DHT22;18973;48.580;8.912;2023-04-15T12:28:55;15.60;70.30
32534;DHT22;18973;48.580;8.912;2023-04-15T12:31:25;15.70;69.40
32534;DHT22;18973;48.580;8.912;2023-04-15T12:33:50;15.70;65.60
32534;DHT22;18973;48.580;8.912;2023-04-15T12:36:16;15.60;66.30
32534;DHT22;18973;48.580;8.912;2023-04-15T12:38:42;15.40;64.80
32534;DHT22;18973;48.580;8.912;2023-04-15T12:41:07;15.50;66.90
32534;DHT22;18973;48.580;8.912;2023-04-15T12:43:33;15.70;67.20
32534;DHT22;18973;48.580;8.912;2023-04-15T12:45:59;16.00;69.70
32534;DHT22;18973;48.580;8.912;2023-04-15T12:48:24;16.10;63.20
32534;DHT22;18973;48.580;8.912;2023-04-15T12:50:50;16.10;63.00
32534;DHT22;18973;48.580;8.912;2023-04-15T12:53:16;16.10;65.10
32534;DHT22;18973;48.580;8.912;2023-04-15T12:55:41;16.10;66.00
32534;DHT22;18973;48.580;8.912;2023-04-15T12:58:07;16.40;65.40
32534;DHT22;18973;48.580;8.912;2023-04-15T13:00:33;16.50;64.90
32534;DHT22;18973;48.580;8.912;2023-04-15T13:02:59;16.40;65.00
32534;DHT22;18973;48.580;8.912;2023-04-15T13:05:25;16.10;66.30
32534;DHT22;18973;48.580;8.912;2023-04-15T13:07:51;16.00;66.90
32534;DHT22;18973;48.580;8.912;2023-04-15T13:10:16;15.80;65.90
32534;DHT22;18973;48.580;8.912;2023-04-15T13:12:42;15.40;63.60
32534;DHT22;18973;48.580;8.912;2023-04-15T13:15:08;15.10;64.60
32534;DHT22;18973;48.580;8.912;2023-04-15T13:17:37;15.00;65.60
32534;DHT22;18973;48.580;8.912;2023-04-15T13:20:03;15.30;70.40
32534;DHT22;18973;48.580;8.912;2023-04-15T13:22:29;15.50;68.60
32534;DHT22;18973;48.580;8.912;2023-04-15T13:24:55;15.70;68.80
32534;DHT22;18973;48.580;8.912;2023-04-15T13:27:20;15.70;66.30
32534;DHT22;18973;48.580;8.912;2023-04-15T13:29:46;15.60;67.30
32534;DHT22;18973;48.580;8.912;2023-04-15T13:32:12;15.60;66.30
32534;DHT22;18973;48.580;8.912;2023-04-15T13:34:38;15.30;65.10
32534;DHT22;18973;48.580;8.912;2023-04-15T13:37:07;15.40;65.40
32534;DHT22;18973;48.580;8.912;2023-04-15T13:39:33;15.40;65.80
32534;DHT22;18973;48.580;8.912;2023-04-15T13:41:59;15.10;63.50
32534;DHT22;18973;48.580;8.912;2023-04-15T13:44:27;14.90;64.40
32534;DHT22;18973;48.580;8.912;2023-04-15T13:46:53;14.80;62.80
32534;DHT22;18973;48.580;8.912;2023-04-15T13:49:19;14.60;61.10
32534;DHT22;18973;48.580;8.912;2023-04-15T13:51:44;14.50;63.50
32534;DHT22;18973;48.580;8.912;2023-04-15T13:54:10;14.60;63.10
32534;DHT22;18973;48.580;8.912;2023-04-15T13:56:36;14.60;62.80
32534;DHT22;18973;48.580;8.912;2023-04-15T13:59:02;14.20;66.60
32534;DHT22;18973;48.580;8.912;2023-04-15T14:01:31;13.70;70.70
32534;DHT22;18973;48.580;8.912;2023-04-15T14:03:56;13.50;71.80
32534;DHT22;18973;48.580;8.912;2023-04-15T14:06:22;13.40;71.90
32534;DHT22;18973;48.580;8.912;2023-04-15T14:08:48;13.60;73.00
32534;DHT22;18973;48.580;8.912;2023-04-15T14:11:14;13.20;71.20
32534;DHT22;18973;48.580;8.912;2023-04-15T14:13:42;13.10;73.60
32534;DHT22;18973;48.580;8.912;2023-04-15T14:16:08;13.20;72.50
32534;DHT22;18973;48.580;8.912;2023-04-15T14:18:33;13.10;69.50
32534;DHT22;18973;48.580;8.912;2023-04-15T14:20:59;13.20;69.40
32534;DHT22;18973;48.580;8.912;2023-04-15T14:23:25;13.20;68.70
32534;DHT22;18973;48.580;8.912;2023-04-15T14:25:51;13.10;67.90
32534;DHT22;18973;48.580;8.912;2023-04-15T14:28:17;13.10;69.60
32534;DHT22;18973;48.580;8.912;2023-04-15T14:30:43;13.00;67.30
32534;DHT22;18973;48.580;8.912;2023-04-15T14:33:12;13.00;68.10
32534;DHT22;18973;48.580;8.912;2023-04-15T14:35:38;13.10;67.60
32534;DHT22;18973;48.580;8.912;2023-04-15T14:38:04;13.20;67.30
32534;DHT22;18973;48.580;8.912;2023-04-15T14:40:31;13.00;66.20
32534;DHT22;18973;48.580;8.912;2023-04-15T14:42:57;13.00;68.50
32534;DHT22;18973;48.580;8.912;2023-04-15T14:45:23;13.10;69.00
32534;DHT22;18973;48.580;8.912;2023-04-15T14:47:48;13.10;68.30
32534;DHT22;18973;48.580;8.912;2023-04-15T14:50:16;13.00;67.80
32534;DHT22;18973;48.580;8.912;2023-04-15T14:52:42;12.80;67.40
32534;DHT22;18973;48.580;8.912;2023-04-15T14:55:09;12.60;68.20
32534;DHT22;18973;48.580;8.912;2023-04-15T14:57:40;12.60;69.80
32534;DHT22;18973;48.580;8.912;2023-04-15T15:00:07;12.70;69.80
32534;DHT22;18973;48.580;8.912;2023-04-15T15:02:34;12.70;69.20
32534;DHT22;18973;48.580;8.912;2023-04-15T15:05:01;12.70;68.90
32534;DHT22;18973;48.580;8.912;2023-04-15T15:07:27;12.60;69.10
32534;DHT22;18973;48.580;8.912;2023-04-15T15:09:53;12.60;70.40
32534;DHT22;18973;48.580;8.912;2023-04-15T15:12:19;12.50;69.70
32534;DHT22;18973;48.580;8.912;2023-04-15T15:14:46;12.50;69.70
32534;DHT22;18973;48.580;8.912;2023-04-15T15:17:12;12.60;70.50
32534;DHT22;18973;48.580;8.912;2023-04-15T15:19:38;12.50;69.10
32534;DHT22;18973;48.580;8.912;2023-04-15T15:22:04;12.60;69.20
32534;DHT22;18973;48.580;8.912;2023-04-15T15:24:30;12.60;68.60
32534;DHT22;18973;48.580;8.912;2023-04-15T15:26:55;12.60;69.40
32534;DHT22;18973;48.580;8.912;2023-04-15T15:29:22;12.50;68.80
32534;DHT22;18973;48.580;8.912;2023-04-15T15:31:48;12.50;69.40
32534;DHT22;18973;48.580;8.912;2023-04-15T15:34:15;12.50;70.40
32534;DHT22;18973;48.580;8.912;2023-04-15T15:36:41;12.60;70.90
32534;DHT22;18973;48.580;8.912;2023-04-15T15:39:07;12.50;69.80
32534;DHT22;18973;48.580;8.912;2023-04-15T15:41:33;12.50;72.10
32534;DHT22;18973;48.580;8.912;2023-04-15T15:43:58;12.40;72.30
32534;DHT22;18973;48.580;8.912;2023-04-15T15:46:26;12.40;73.00